createdAt,value
2023-03-08T00:02:14.806Z,4.72
2023-03-08T00:07:11.401Z,5.00
2023-03-08T00:12:08.386Z,5.05
2023-03-08T00:17:05.104Z,4.88
2023-03-08T00:22:01.614Z,4.80
2023-03-08T00:26:58.015Z,5.30
2023-03-08T00:31:54.403Z,4.90
2023-03-08T00:36:50.835Z,4.78
2023-03-08T00:41:47.245Z,4.40
2023-03-08T00:46:43.739Z,4.47
2023-03-08T00:51:40.138Z,4.40
2023-03-08T00:56:36.577Z,5.20
2023-03-08T01:01:33.485Z,4.80
2023-03-08T01:06:29.907Z,4.55
2023-03-08T01:11:27.602Z,4.90
2023-03-08T01:16:27.890Z,4.78
2023-03-08T01:21:25.186Z,4.80
2023-03-08T01:26:24.244Z,5.20
2023-03-08T01:31:23.468Z,5.07
2023-03-08T01:36:22.361Z,5.25
2023-03-08T01:41:25.091Z,5.20
2023-03-08T01:46:35.020Z,4.97
2023-03-08T01:51:46.664Z,5.00
2023-03-08T01:56:44.916Z,5.10
2023-03-08T02:01:41.541Z,5.78
2023-03-08T02:06:38.031Z,5.22
2023-03-08T02:11:36.902Z,5.18
2023-03-08T02:16:33.306Z,5.70
2023-03-08T02:21:31.358Z,6.00
2023-03-08T02:26:27.784Z,6.47
2023-03-08T02:31:24.210Z,5.40
2023-03-08T02:36:20.697Z,5.82
2023-03-08T02:41:17.222Z,5.85
2023-03-08T02:46:14.528Z,6.00
2023-03-08T02:51:10.953Z,5.60
2023-03-08T02:56:07.720Z,5.88
2023-03-08T03:01:04.226Z,6.35
2023-03-08T03:06:00.727Z,6.47
2023-03-08T03:10:57.216Z,5.90
2023-03-08T03:15:53.677Z,6.00
2023-03-08T03:20:50.155Z,5.60
2023-03-08T03:25:46.594Z,7.25
2023-03-08T03:30:43.319Z,6.50
2023-03-08T03:35:39.851Z,6.75
2023-03-08T03:40:36.254Z,7.35
2023-03-08T03:45:32.635Z,6.85
2023-03-08T03:50:29.114Z,6.90
2023-03-08T03:55:25.485Z,7.00
2023-03-08T04:00:22.146Z,6.50
2023-03-08T04:05:18.599Z,6.85
2023-03-08T04:10:15.029Z,6.50
2023-03-08T04:15:11.746Z,6.85
2023-03-08T04:20:09.061Z,7.15
2023-03-08T04:25:05.912Z,6.28
2023-03-08T04:30:02.714Z,6.85
2023-03-08T04:34:59.211Z,7.20
2023-03-08T04:39:55.727Z,6.88
2023-03-08T04:44:52.130Z,6.70
2023-03-08T04:49:48.515Z,7.70
2023-03-08T04:54:44.977Z,6.57
2023-03-08T04:59:43.842Z,6.38
2023-03-08T05:04:40.299Z,7.03
2023-03-08T05:09:36.766Z,6.95
2023-03-08T05:14:33.153Z,7.65
2023-03-08T05:19:29.626Z,7.65
2023-03-08T05:24:27.225Z,7.28
2023-03-08T05:29:23.598Z,7.30
2023-03-08T05:34:20.063Z,7.30
2023-03-08T05:39:16.516Z,7.55
2023-03-08T05:44:13.007Z,7.78
2023-03-08T05:49:09.408Z,9.45
2023-03-08T05:54:06.119Z,9.25
2023-03-08T05:59:03.010Z,10.73
2023-03-08T06:03:59.425Z,12.23
2023-03-08T06:08:56.385Z,11.02
2023-03-08T06:13:52.954Z,11.35
2023-03-08T06:18:49.384Z,12.32
2023-03-08T06:23:46.123Z,11.40
2023-03-08T06:28:42.781Z,12.50
2023-03-08T06:33:39.156Z,13.82
2023-03-08T06:38:38.200Z,13.25
2023-03-08T06:43:35.666Z,11.77
2023-03-08T06:48:32.524Z,12.45
2023-03-08T06:53:29.227Z,12.75
2023-03-08T06:58:25.678Z,11.65
2023-03-08T07:03:22.927Z,12.15
2023-03-08T07:08:19.423Z,13.90
2023-03-08T07:13:15.849Z,12.73
2023-03-08T07:18:13.583Z,11.73
2023-03-08T07:23:11.018Z,13.43
2023-03-08T07:28:07.505Z,13.85
2023-03-08T07:33:04.397Z,13.93
2023-03-08T07:38:00.956Z,13.50
2023-03-08T07:42:57.527Z,14.07
2023-03-08T07:47:54.197Z,13.75
2023-03-08T07:52:50.614Z,13.88
2023-03-08T07:57:47.044Z,13.73
2023-03-08T08:02:43.486Z,13.25
2023-03-08T08:07:39.874Z,14.40
2023-03-08T08:12:36.242Z,14.23
2023-03-08T08:17:32.631Z,14.02
2023-03-08T08:22:29.011Z,16.10
2023-03-08T08:27:25.452Z,14.48
2023-03-08T08:32:21.907Z,15.45
2023-03-08T08:37:18.362Z,15.55
2023-03-08T08:42:14.804Z,13.80
2023-03-08T08:47:11.300Z,13.55
2023-03-08T08:52:07.700Z,12.95
2023-03-08T08:57:04.144Z,11.93
2023-03-08T09:02:00.825Z,12.63
2023-03-08T09:06:57.456Z,13.35
2023-03-08T09:11:55.716Z,16.15
2023-03-08T09:16:53.151Z,16.10
2023-03-08T09:21:49.665Z,16.25
2023-03-08T09:26:47.142Z,15.52
2023-03-08T09:31:45.171Z,16.20
2023-03-08T09:36:42.543Z,17.70
2023-03-08T09:41:41.498Z,18.02
2023-03-08T09:46:46.067Z,14.60
2023-03-08T09:51:47.289Z,16.35
2023-03-08T09:56:49.721Z,16.52
2023-03-08T10:07:21.346Z,15.50
2023-03-08T10:12:32.039Z,16.23
2023-03-08T10:17:39.324Z,15.38
2023-03-08T10:22:42.302Z,14.95
2023-03-08T10:27:38.732Z,13.85
2023-03-08T10:32:43.744Z,14.48
2023-03-08T10:37:40.461Z,13.45
2023-03-08T10:42:37.241Z,13.10
2023-03-08T10:47:35.454Z,13.70
2023-03-08T10:52:31.888Z,14.15
2023-03-08T10:57:29.260Z,13.02
2023-03-08T11:02:25.690Z,13.15
2023-03-08T11:07:25.855Z,12.23
2023-03-08T11:12:26.461Z,11.77
2023-03-08T11:17:33.366Z,13.10
2023-03-08T11:22:54.582Z,12.23
2023-03-08T11:28:23.889Z,10.80
2023-03-08T11:33:53.424Z,11.98
2023-03-08T11:39:15.674Z,12.35
2023-03-08T11:44:17.955Z,11.75
2023-03-08T11:49:25.948Z,11.07
2023-03-08T11:54:42.748Z,12.73
2023-03-08T11:59:56.874Z,11.30
2023-03-08T12:05:02.369Z,11.32
2023-03-08T12:10:03.754Z,10.27
2023-03-08T12:15:07.798Z,11.00
2023-03-08T12:20:09.083Z,11.10
2023-03-08T12:25:31.900Z,11.25
2023-03-08T12:30:41.535Z,10.43
2023-03-08T12:35:49.365Z,11.48
2023-03-08T12:40:51.200Z,12.48
2023-03-08T12:45:56.684Z,10.63
2023-03-08T12:51:14.231Z,11.88
2023-03-08T12:56:10.606Z,11.52
2023-03-08T13:01:30.312Z,11.40
2023-03-08T13:06:36.918Z,12.52
2023-03-08T13:11:44.577Z,13.40
2023-03-08T13:16:41.053Z,13.68
2023-03-08T13:21:41.535Z,12.45
2023-03-08T13:27:05.548Z,12.82
2023-03-08T13:32:11.771Z,12.02
2023-03-08T13:37:25.599Z,11.18
2023-03-08T13:42:26.981Z,11.98
2023-03-08T13:47:33.783Z,10.38
2023-03-08T13:52:36.381Z,10.02
2023-03-08T14:02:32.371Z,10.20
2023-03-08T14:07:32.104Z,9.70
2023-03-08T14:12:31.967Z,9.57
2023-03-08T14:17:31.615Z,10.32
2023-03-08T14:22:39.200Z,10.13
2023-03-08T14:27:41.399Z,8.77
2023-03-08T14:32:38.525Z,10.05
2023-03-08T14:37:35.565Z,10.15
2023-03-08T14:42:46.922Z,9.65
2023-03-08T14:47:58.780Z,8.93
2023-03-08T14:52:56.372Z,8.32
2023-03-08T14:57:59.740Z,8.07
2023-03-08T15:02:57.819Z,8.55
2023-03-08T15:07:54.952Z,7.53
2023-03-08T15:12:51.678Z,7.53
2023-03-08T15:17:51.844Z,8.45
2023-03-08T15:22:52.767Z,6.38
2023-03-08T15:27:49.898Z,6.38
2023-03-08T15:32:46.693Z,7.30
2023-03-08T15:37:43.886Z,7.78
2023-03-08T15:42:40.628Z,6.78
2023-03-08T15:47:37.352Z,6.60
2023-03-08T15:52:33.880Z,6.95
2023-03-08T15:57:30.249Z,7.45
2023-03-08T16:02:26.955Z,7.15
2023-03-08T16:07:23.539Z,7.00
2023-03-08T16:12:20.001Z,6.70
2023-03-08T16:17:17.674Z,6.78
2023-03-08T16:22:14.207Z,6.55
2023-03-08T16:27:10.745Z,7.07
2023-03-08T16:32:07.395Z,6.90
2023-03-08T16:37:05.381Z,6.95
2023-03-08T16:42:01.912Z,7.43
2023-03-08T16:46:58.316Z,7.05
2023-03-08T16:51:55.544Z,6.60
2023-03-08T16:56:51.947Z,6.50
2023-03-08T17:01:49.841Z,7.07
2023-03-08T17:06:46.549Z,6.13
2023-03-08T17:11:43.206Z,7.05
2023-03-08T17:16:40.081Z,8.05
2023-03-08T17:21:38.250Z,7.18
2023-03-08T17:26:40.190Z,7.38
2023-03-08T17:31:36.760Z,7.37
2023-03-08T17:36:33.304Z,7.60
2023-03-08T17:41:29.853Z,7.82
2023-03-08T17:46:27.458Z,7.60
2023-03-08T17:51:26.535Z,7.85
2023-03-08T17:56:29.413Z,8.30
2023-03-08T18:01:28.245Z,8.65
2023-03-08T18:06:30.818Z,7.97
2023-03-08T18:16:23.995Z,9.25
2023-03-08T18:21:21.453Z,8.73
2023-03-08T18:26:18.633Z,8.68
2023-03-08T18:31:18.067Z,9.00
2023-03-08T18:36:14.647Z,8.88
2023-03-08T18:41:25.442Z,8.18
2023-03-08T18:46:28.468Z,9.15
2023-03-08T18:51:24.982Z,8.82
2023-03-08T18:56:22.276Z,8.48
2023-03-08T19:01:18.795Z,8.60
2023-03-08T19:06:15.415Z,9.50
2023-03-08T19:11:13.187Z,9.00
2023-03-08T19:16:21.576Z,9.30
2023-03-08T19:21:20.579Z,9.68
2023-03-08T19:26:38.836Z,8.95
2023-03-08T19:31:40.247Z,9.45
2023-03-08T19:36:37.734Z,9.48
2023-03-08T19:41:34.148Z,9.38
2023-03-08T19:46:30.801Z,9.45
2023-03-08T19:51:27.307Z,9.00
2023-03-08T19:56:24.870Z,9.68
2023-03-08T20:01:21.826Z,9.07
2023-03-08T20:06:36.840Z,9.25
2023-03-08T20:11:33.419Z,9.93
2023-03-08T20:16:30.368Z,9.13
2023-03-08T20:21:29.549Z,10.55
2023-03-08T20:26:29.065Z,9.20
2023-03-08T20:31:27.436Z,9.35
2023-03-08T20:36:24.143Z,9.52
2023-03-08T20:41:22.764Z,9.68
2023-03-08T20:46:21.129Z,9.60
2023-03-08T20:51:19.394Z,8.85
2023-03-08T20:56:17.962Z,10.25
2023-03-08T21:01:17.297Z,9.65
2023-03-08T21:06:19.176Z,9.38
2023-03-08T21:11:16.540Z,8.18
2023-03-08T21:16:15.560Z,8.27
2023-03-08T21:21:23.938Z,9.05
2023-03-08T21:26:21.905Z,8.60
2023-03-08T21:31:19.874Z,8.52
2023-03-08T21:36:16.843Z,8.20
2023-03-08T21:41:24.609Z,8.02
2023-03-08T21:46:21.380Z,8.18
2023-03-08T21:51:17.904Z,8.20
2023-03-08T21:56:16.713Z,8.40
2023-03-08T22:01:19.189Z,8.48
2023-03-08T22:11:12.040Z,8.00
2023-03-08T22:16:08.938Z,7.78
2023-03-08T22:21:05.421Z,8.30
2023-03-08T22:26:01.965Z,8.15
2023-03-08T22:30:58.353Z,7.72
2023-03-08T22:35:54.835Z,7.68
2023-03-08T22:40:51.276Z,7.88
2023-03-08T22:45:47.722Z,8.25
2023-03-08T22:50:44.119Z,8.10
2023-03-08T22:55:47.209Z,8.05
2023-03-08T23:00:43.631Z,7.55
2023-03-08T23:05:40.112Z,7.88
2023-03-08T23:10:37.394Z,8.00
2023-03-08T23:15:33.809Z,7.60
2023-03-08T23:20:30.455Z,8.23
2023-03-08T23:25:26.850Z,7.70
2023-03-08T23:30:23.273Z,7.72
2023-03-08T23:35:19.825Z,7.70
2023-03-08T23:40:16.354Z,8.13
2023-03-08T23:45:12.776Z,7.80
2023-03-08T23:50:09.670Z,8.25
2023-03-08T23:55:06.818Z,7.90
